createdAt,value
2022-11-25T00:01:21.473Z,12.27
2022-11-25T00:03:49.011Z,11.75
2022-11-25T00:06:21.831Z,17.13
2022-11-25T00:08:50.568Z,13.57
2022-11-25T00:11:18.175Z,14.05
2022-11-25T00:13:45.864Z,11.02
2022-11-25T00:16:15.217Z,12.68
2022-11-25T00:18:45.905Z,13.23
2022-11-25T00:21:15.610Z,9.65
2022-11-25T00:23:42.793Z,16.17
2022-11-25T00:26:16.622Z,13.07
2022-11-25T00:28:45.148Z,14.48
2022-11-25T00:31:25.930Z,9.88
2022-11-25T00:33:52.433Z,12.63
2022-11-25T00:36:23.632Z,9.23
2022-11-25T00:39:09.324Z,8.93
2022-11-25T00:41:54.257Z,10.27
2022-11-25T00:44:37.010Z,13.98
2022-11-25T00:47:04.142Z,10.40
2022-11-25T00:49:31.094Z,10.07
2022-11-25T00:51:57.554Z,8.35
2022-11-25T00:54:24.055Z,11.00
2022-11-25T00:56:51.147Z,13.13
2022-11-25T00:59:18.522Z,14.18
2022-11-25T01:01:45.074Z,9.95
2022-11-25T01:04:11.529Z,10.20
2022-11-25T01:06:38.191Z,14.45
2022-11-25T01:09:08.921Z,12.55
2022-11-25T01:11:35.632Z,9.07
2022-11-25T01:14:02.432Z,15.73
2022-11-25T01:16:29.962Z,13.98
2022-11-25T01:18:58.407Z,18.38
2022-11-25T01:21:27.134Z,12.25
2022-11-25T01:23:53.928Z,11.15
2022-11-25T01:26:23.428Z,14.20
2022-11-25T01:28:53.860Z,13.52
2022-11-25T01:31:21.959Z,13.82
2022-11-25T01:33:53.584Z,18.05
2022-11-25T01:36:20.012Z,13.18
2022-11-25T01:38:51.242Z,15.57
2022-11-25T01:41:18.200Z,12.20
2022-11-25T01:44:04.693Z,12.68
2022-11-25T01:46:37.026Z,13.23
2022-11-25T01:49:10.448Z,17.45
2022-11-25T01:54:20.486Z,16.60
2022-11-25T01:56:53.354Z,11.52
2022-11-25T01:59:20.044Z,17.88
2022-11-25T02:01:46.849Z,13.52
2022-11-25T02:04:16.766Z,18.02
2022-11-25T02:06:57.519Z,10.70
2022-11-25T02:09:24.993Z,12.10
2022-11-25T02:11:52.317Z,11.18
2022-11-25T02:14:22.494Z,12.23
2022-11-25T02:16:49.180Z,11.18
2022-11-25T02:19:39.018Z,10.02
2022-11-25T02:22:15.332Z,13.48
2022-11-25T02:24:46.046Z,12.30
2022-11-25T02:27:13.313Z,13.20
2022-11-25T02:29:40.812Z,13.77
2022-11-25T02:32:07.377Z,11.65
2022-11-25T02:34:34.106Z,12.07
2022-11-25T02:37:01.165Z,11.50
2022-11-25T02:39:28.695Z,12.48
2022-11-25T02:41:58.411Z,10.40
2022-11-25T02:44:24.842Z,9.00
2022-11-25T02:46:51.307Z,10.32
2022-11-25T02:49:17.747Z,9.23
2022-11-25T02:51:45.352Z,11.93
2022-11-25T02:54:14.355Z,9.60
2022-11-25T02:56:40.873Z,9.38
2022-11-25T02:59:08.069Z,15.95
2022-11-25T03:01:35.589Z,16.02
2022-11-25T03:04:02.662Z,11.43
2022-11-25T03:06:29.964Z,10.07
2022-11-25T03:08:57.555Z,14.25
2022-11-25T03:11:44.630Z,12.82
2022-11-25T03:14:11.029Z,13.55
2022-11-25T03:16:37.540Z,10.13
2022-11-25T03:19:04.545Z,10.57
2022-11-25T03:21:31.470Z,12.60
2022-11-25T03:23:57.950Z,7.97
2022-11-25T03:26:25.981Z,11.57
2022-11-25T03:28:52.449Z,11.93
2022-11-25T03:31:18.955Z,8.07
2022-11-25T03:33:45.389Z,10.10
2022-11-25T03:36:11.796Z,10.90
2022-11-25T03:38:38.235Z,14.45
2022-11-25T03:41:04.756Z,10.63
2022-11-25T03:43:31.243Z,12.27
2022-11-25T03:45:57.691Z,9.82
2022-11-25T03:48:24.167Z,11.68
2022-11-25T03:50:50.593Z,10.43
2022-11-25T03:53:17.136Z,7.85
2022-11-25T03:55:43.579Z,11.90
2022-11-25T03:58:10.080Z,15.68
2022-11-25T04:00:38.587Z,11.65
2022-11-25T04:03:05.067Z,11.18
2022-11-25T04:05:31.503Z,13.65
2022-11-25T04:07:58.288Z,9.85
2022-11-25T04:10:25.000Z,15.70
2022-11-25T04:12:52.492Z,13.65
2022-11-25T04:15:19.414Z,13.27
2022-11-25T04:17:46.208Z,12.48
2022-11-25T04:20:13.875Z,13.35
2022-11-25T04:22:40.460Z,12.75
2022-11-25T04:25:07.408Z,13.60
2022-11-25T04:27:34.307Z,15.35
2022-11-25T04:30:00.843Z,12.68
2022-11-25T04:32:27.558Z,15.18
2022-11-25T04:34:54.089Z,21.23
2022-11-25T04:37:20.642Z,14.27
2022-11-25T04:39:47.106Z,11.55
2022-11-25T04:42:31.825Z,12.50
2022-11-25T04:45:22.177Z,12.13
2022-11-25T04:47:48.780Z,12.95
2022-11-25T04:50:19.249Z,13.80
2022-11-25T04:52:45.733Z,12.80
2022-11-25T04:55:12.190Z,15.65
2022-11-25T04:57:38.653Z,13.43
2022-11-25T05:00:06.580Z,12.98
2022-11-25T05:02:33.114Z,12.93
2022-11-25T05:04:59.637Z,13.50
2022-11-25T05:07:27.948Z,18.83
2022-11-25T05:09:54.734Z,14.38
2022-11-25T05:12:24.081Z,13.93
2022-11-25T05:14:50.641Z,10.45
2022-11-25T05:17:22.230Z,15.43
2022-11-25T05:19:49.785Z,11.90
2022-11-25T05:22:19.623Z,10.50
2022-11-25T05:24:46.660Z,11.88
2022-11-25T05:27:13.439Z,12.50
2022-11-25T05:29:39.861Z,14.00
2022-11-25T05:32:06.856Z,12.40
2022-11-25T05:34:33.387Z,19.10
2022-11-25T05:37:00.065Z,13.57
2022-11-25T05:39:26.634Z,15.38
2022-11-25T05:41:53.197Z,16.77
2022-11-25T05:44:23.101Z,12.93
2022-11-25T05:46:50.139Z,14.88
2022-11-25T05:49:17.566Z,13.75
2022-11-25T05:51:44.580Z,17.02
2022-11-25T05:54:11.720Z,16.60
2022-11-25T05:56:38.376Z,15.20
2022-11-25T05:59:06.202Z,15.30
2022-11-25T06:01:33.201Z,14.60
2022-11-25T06:04:01.446Z,18.15
2022-11-25T06:06:28.210Z,16.67
2022-11-25T06:08:54.653Z,12.38
2022-11-25T06:11:21.065Z,14.13
2022-11-25T06:13:47.581Z,16.15
2022-11-25T06:16:20.385Z,14.90
2022-11-25T06:18:47.104Z,13.43
2022-11-25T06:21:14.918Z,17.48
2022-11-25T06:23:41.409Z,14.02
2022-11-25T06:26:12.186Z,19.80
2022-11-25T06:28:38.631Z,18.58
2022-11-25T06:31:16.444Z,17.98
2022-11-25T06:33:43.202Z,14.27
2022-11-25T06:36:16.965Z,13.68
2022-11-25T06:38:54.247Z,12.32
2022-11-25T06:41:22.557Z,16.70
2022-11-25T06:43:49.033Z,19.85
2022-11-25T06:46:24.181Z,16.00
2022-11-25T06:48:52.004Z,21.50
2022-11-25T06:51:18.724Z,16.75
2022-11-25T06:53:45.818Z,15.18
2022-11-25T06:56:15.521Z,15.95
2022-11-25T06:58:43.147Z,14.77
2022-11-25T07:01:24.706Z,16.40
2022-11-25T07:03:53.930Z,17.35
2022-11-25T07:06:21.608Z,17.77
2022-11-25T07:08:48.471Z,15.95
2022-11-25T07:11:18.699Z,16.20
2022-11-25T07:13:45.985Z,15.10
2022-11-25T07:16:13.215Z,17.40
2022-11-25T07:18:41.132Z,14.20
2022-11-25T07:21:08.992Z,19.83
2022-11-25T07:23:36.797Z,16.95
2022-11-25T07:26:06.297Z,15.82
2022-11-25T07:28:33.553Z,13.60
2022-11-25T07:31:27.780Z,14.35
2022-11-25T07:33:59.521Z,13.75
2022-11-25T07:36:26.777Z,13.10
2022-11-25T07:38:53.292Z,17.85
2022-11-25T07:41:22.614Z,11.75
2022-11-25T07:43:52.275Z,12.18
2022-11-25T07:46:27.376Z,12.98
2022-11-25T07:48:56.084Z,16.77
2022-11-25T07:51:30.613Z,16.50
2022-11-25T07:53:58.506Z,15.85
2022-11-25T07:56:25.506Z,14.80
2022-11-25T07:58:52.085Z,14.52
2022-11-25T08:01:19.683Z,23.65
2022-11-25T08:03:48.561Z,18.30
2022-11-25T08:06:18.598Z,17.98
2022-11-25T08:08:46.036Z,15.20
2022-11-25T08:11:15.135Z,13.35
2022-11-25T08:13:42.100Z,16.52
2022-11-25T08:16:09.020Z,15.85
2022-11-25T08:18:35.609Z,13.98
2022-11-25T08:21:04.837Z,17.05
2022-11-25T08:23:32.999Z,12.43
2022-11-25T08:26:18.368Z,14.77
2022-11-25T08:28:46.928Z,14.38
2022-11-25T08:31:17.054Z,10.63
2022-11-25T08:33:44.162Z,10.93
2022-11-25T08:36:11.416Z,12.93
2022-11-25T08:38:38.521Z,14.55
2022-11-25T08:41:10.492Z,14.13
2022-11-25T08:43:38.502Z,16.13
2022-11-25T08:46:08.847Z,28.17
2022-11-25T08:48:35.574Z,19.75
2022-11-25T08:51:02.017Z,24.40
2022-11-25T08:53:28.741Z,24.70
2022-11-25T08:55:55.150Z,29.27
2022-11-25T08:58:21.613Z,31.02
2022-11-25T09:00:48.100Z,33.10
2022-11-25T09:03:14.694Z,24.90
2022-11-25T09:05:43.054Z,21.10
2022-11-25T09:08:10.714Z,25.73
2022-11-25T09:10:38.849Z,17.50
2022-11-25T09:13:05.362Z,25.23
2022-11-25T09:15:32.514Z,16.40
2022-11-25T09:18:04.947Z,21.52
2022-11-25T09:20:32.731Z,23.50
2022-11-25T09:23:01.251Z,20.35
2022-11-25T09:25:28.573Z,21.77
2022-11-25T09:27:55.979Z,21.05
2022-11-25T09:30:23.841Z,19.77
2022-11-25T09:32:52.796Z,21.83
2022-11-25T09:35:19.675Z,21.63
2022-11-25T09:37:46.160Z,20.02
2022-11-25T09:40:33.343Z,18.35
2022-11-25T09:43:38.417Z,17.65
2022-11-25T09:46:40.135Z,21.10
2022-11-25T09:49:33.990Z,21.10
2022-11-25T09:52:03.819Z,18.13
2022-11-25T09:54:36.859Z,19.77
2022-11-25T09:57:20.476Z,17.83
2022-11-25T09:59:57.113Z,16.65
2022-11-25T10:02:39.328Z,18.40
2022-11-25T10:05:18.481Z,21.45
2022-11-25T10:07:51.886Z,22.10
2022-11-25T10:12:51.115Z,21.55
2022-11-25T10:15:20.983Z,15.40
2022-11-25T10:17:50.721Z,18.33
2022-11-25T10:20:23.785Z,19.77
2022-11-25T10:23:01.065Z,15.65
2022-11-25T10:25:35.295Z,15.15
2022-11-25T10:28:22.948Z,16.52
2022-11-25T10:31:15.269Z,16.50
2022-11-25T10:33:49.431Z,15.02
2022-11-25T10:36:23.744Z,15.43
2022-11-25T10:39:07.709Z,17.70
2022-11-25T10:41:42.978Z,15.50
2022-11-25T10:44:23.454Z,17.17
2022-11-25T10:47:30.661Z,19.27
2022-11-25T10:50:18.426Z,16.55
2022-11-25T10:52:57.249Z,16.95
2022-11-25T10:55:33.947Z,15.70
2022-11-25T10:58:25.415Z,17.85
2022-11-25T11:01:03.002Z,16.15
2022-11-25T11:03:29.508Z,17.98
2022-11-25T11:05:56.018Z,13.57
2022-11-25T11:08:28.552Z,17.55
2022-11-25T11:11:16.471Z,14.37
2022-11-25T11:13:43.495Z,16.70
2022-11-25T11:16:31.626Z,10.10
2022-11-25T11:18:58.532Z,18.52
2022-11-25T11:21:35.641Z,15.23
2022-11-25T11:24:04.449Z,16.20
2022-11-25T11:26:33.943Z,10.23
2022-11-25T11:29:21.509Z,9.85
2022-11-25T11:32:19.926Z,12.48
2022-11-25T11:35:02.417Z,13.02
2022-11-25T11:37:29.706Z,12.38
2022-11-25T11:40:17.979Z,15.00
2022-11-25T11:43:05.724Z,15.70
2022-11-25T11:46:13.429Z,16.77
2022-11-25T11:49:00.670Z,16.23
2022-11-25T11:51:37.598Z,13.52
2022-11-25T11:54:17.589Z,14.13
2022-11-25T11:57:04.249Z,19.88
2022-11-25T11:59:51.309Z,17.05
2022-11-25T12:02:31.191Z,15.93
2022-11-25T12:05:11.310Z,18.63
2022-11-25T12:07:53.104Z,14.57
2022-11-25T12:10:26.078Z,13.48
2022-11-25T12:13:05.554Z,12.98
2022-11-25T12:15:50.500Z,14.27
2022-11-25T12:18:41.888Z,17.17
2022-11-25T12:21:28.367Z,15.82
2022-11-25T12:24:19.438Z,14.40
2022-11-25T12:27:06.545Z,15.48
2022-11-25T12:29:48.734Z,17.63
2022-11-25T12:32:31.018Z,16.17
2022-11-25T12:35:19.709Z,18.33
2022-11-25T12:37:55.162Z,16.27
2022-11-25T12:40:42.727Z,20.60
2022-11-25T12:43:37.389Z,20.38
2022-11-25T12:46:45.227Z,16.35
2022-11-25T12:49:20.066Z,17.92
2022-11-25T12:51:54.028Z,16.70
2022-11-25T12:54:43.604Z,18.67
2022-11-25T12:57:37.988Z,17.83
2022-11-25T13:00:40.440Z,19.05
2022-11-25T13:03:16.210Z,16.85
2022-11-25T13:06:00.743Z,17.80
2022-11-25T13:08:42.091Z,16.98
2022-11-25T13:11:15.615Z,12.38
2022-11-25T13:14:13.279Z,19.38
2022-11-25T13:16:42.331Z,16.00
2022-11-25T13:19:12.044Z,15.18
2022-11-25T13:21:57.118Z,13.65
2022-11-25T13:24:41.327Z,10.27
2022-11-25T13:27:29.401Z,10.23
2022-11-25T13:29:55.917Z,12.38
2022-11-25T13:32:31.320Z,9.23
2022-11-25T13:35:22.620Z,5.47
2022-11-25T13:37:50.152Z,8.13
2022-11-25T13:40:31.467Z,6.25
2022-11-25T13:43:00.430Z,9.05
2022-11-25T13:45:43.518Z,7.72
2022-11-25T13:48:24.417Z,10.82
2022-11-25T13:51:10.732Z,7.85
2022-11-25T13:53:39.064Z,8.13
2022-11-25T13:56:25.265Z,7.15
2022-11-25T13:59:10.094Z,7.38
2022-11-25T14:01:41.528Z,6.68
2022-11-25T14:04:10.833Z,6.70
2022-11-25T14:07:06.643Z,7.88
2022-11-25T14:09:44.971Z,8.45
2022-11-25T14:12:21.612Z,7.70
2022-11-25T14:15:24.853Z,8.52
2022-11-25T14:19:00.313Z,2.92
2022-11-25T14:21:27.333Z,10.07
2022-11-25T14:24:15.931Z,10.90
2022-11-25T14:26:50.171Z,8.10
2022-11-25T14:29:32.225Z,7.20
2022-11-25T14:32:08.737Z,8.10
2022-11-25T14:34:41.192Z,7.95
2022-11-25T14:37:26.194Z,5.57
2022-11-25T14:40:01.292Z,9.63
2022-11-25T14:42:35.006Z,5.35
2022-11-25T14:45:02.053Z,5.93
2022-11-25T14:47:34.617Z,10.43
2022-11-25T14:50:33.641Z,6.25
2022-11-25T14:52:58.837Z,4.03
2022-11-25T14:55:32.010Z,7.13
2022-11-25T14:57:58.715Z,7.40
2022-11-25T15:00:25.426Z,4.43
2022-11-25T15:03:00.392Z,6.75
2022-11-25T15:05:35.156Z,5.00
2022-11-25T15:08:14.542Z,6.43
2022-11-25T15:10:51.989Z,7.70
2022-11-25T15:13:38.916Z,8.30
2022-11-25T15:16:13.847Z,4.38
2022-11-25T15:18:57.173Z,8.23
2022-11-25T15:21:29.782Z,6.97
2022-11-25T15:23:56.397Z,11.80
2022-11-25T15:26:26.279Z,5.72
2022-11-25T15:29:02.306Z,6.53
2022-11-25T15:31:34.527Z,9.88
2022-11-25T15:34:05.065Z,9.23
2022-11-25T15:36:31.681Z,9.38
2022-11-25T15:39:20.336Z,9.07
2022-11-25T15:41:51.831Z,11.77
2022-11-25T15:44:44.460Z,7.93
2022-11-25T15:47:24.953Z,9.02
2022-11-25T15:50:16.353Z,9.43
2022-11-25T15:52:47.369Z,9.18
2022-11-25T15:55:29.225Z,8.23
2022-11-25T15:58:01.982Z,12.25
2022-11-25T16:00:28.437Z,9.88
2022-11-25T16:02:57.725Z,6.80
2022-11-25T16:05:31.853Z,7.25
2022-11-25T16:08:01.620Z,10.10
2022-11-25T16:10:32.654Z,11.23
2022-11-25T16:13:23.563Z,5.35
2022-11-25T16:15:59.547Z,4.88
2022-11-25T16:18:41.563Z,6.13
2022-11-25T16:21:12.765Z,8.25
2022-11-25T16:23:44.154Z,5.57
2022-11-25T16:26:17.425Z,7.20
2022-11-25T16:28:52.008Z,6.88
2022-11-25T16:31:19.802Z,8.77
2022-11-25T16:33:46.554Z,7.88
2022-11-25T16:36:14.337Z,9.20
2022-11-25T16:38:40.876Z,5.35
2022-11-25T16:41:37.091Z,7.32
2022-11-25T16:44:18.134Z,9.65
2022-11-25T16:46:44.845Z,5.57
2022-11-25T16:49:14.291Z,10.07
2022-11-25T16:51:40.855Z,9.27
2022-11-25T16:54:07.576Z,10.15
2022-11-25T16:56:37.502Z,5.45
2022-11-25T16:59:04.303Z,13.07
2022-11-25T17:01:31.436Z,6.28
2022-11-25T17:03:57.966Z,5.40
2022-11-25T17:06:26.857Z,5.45
2022-11-25T17:08:53.296Z,7.47
2022-11-25T17:11:25.739Z,7.47
2022-11-25T17:13:53.604Z,11.77
2022-11-25T17:16:23.560Z,10.63
2022-11-25T17:18:51.943Z,9.05
2022-11-25T17:21:18.734Z,6.20
2022-11-25T17:23:46.104Z,7.05
2022-11-25T17:26:20.629Z,9.23
2022-11-25T17:28:54.584Z,12.20
2022-11-25T17:31:27.455Z,11.25
2022-11-25T17:33:54.419Z,9.38
2022-11-25T17:36:21.808Z,15.43
2022-11-25T17:38:49.031Z,14.50
2022-11-25T17:41:18.022Z,15.93
2022-11-25T17:43:46.583Z,12.93
2022-11-25T17:46:14.947Z,17.08
2022-11-25T17:48:42.472Z,13.15
2022-11-25T17:51:13.277Z,11.60
2022-11-25T17:53:40.688Z,16.42
2022-11-25T17:56:36.607Z,18.38
2022-11-25T17:59:06.108Z,12.73
2022-11-25T18:01:32.612Z,6.53
2022-11-25T18:03:59.133Z,9.15
2022-11-25T18:06:25.560Z,10.15
2022-11-25T18:08:51.942Z,8.30
2022-11-25T18:11:19.909Z,8.20
2022-11-25T18:13:47.654Z,7.72
2022-11-25T18:16:17.139Z,6.00
2022-11-25T18:18:43.612Z,9.50
2022-11-25T18:21:11.894Z,13.02
2022-11-25T18:23:38.352Z,6.88
2022-11-25T18:26:05.093Z,11.88
2022-11-25T18:28:32.702Z,8.68
2022-11-25T18:31:03.913Z,7.75
2022-11-25T18:33:31.386Z,8.60
2022-11-25T18:35:58.305Z,8.05
2022-11-25T18:38:24.727Z,8.00
2022-11-25T18:40:53.912Z,8.13
2022-11-25T18:43:24.643Z,7.43
2022-11-25T18:45:52.583Z,11.20
2022-11-25T18:48:24.509Z,11.70
2022-11-25T18:50:53.310Z,13.63
2022-11-25T18:53:19.898Z,8.93
2022-11-25T18:55:47.988Z,11.25
2022-11-25T18:58:23.549Z,9.25
2022-11-25T19:00:52.159Z,9.82
2022-11-25T19:03:22.190Z,12.02
2022-11-25T19:05:49.651Z,11.20
2022-11-25T19:08:16.270Z,8.50
2022-11-25T19:10:45.504Z,6.88
2022-11-25T19:13:17.106Z,8.55
2022-11-25T19:15:44.906Z,9.30
2022-11-25T19:18:23.495Z,14.32
2022-11-25T19:20:50.108Z,11.63
2022-11-25T19:23:28.765Z,9.10
2022-11-25T19:26:00.180Z,7.38
2022-11-25T19:28:27.168Z,7.43
2022-11-25T19:31:04.656Z,7.82
2022-11-25T19:33:34.713Z,9.48
2022-11-25T19:36:01.590Z,9.63
2022-11-25T19:38:28.222Z,6.60
2022-11-25T19:40:56.605Z,9.38
2022-11-25T19:43:26.921Z,11.25
2022-11-25T19:45:55.532Z,10.18
2022-11-25T19:48:22.707Z,11.68
2022-11-25T19:50:59.016Z,8.40
2022-11-25T19:53:31.728Z,11.98
2022-11-25T19:56:04.005Z,15.55
2022-11-25T19:58:30.870Z,12.57
2022-11-25T20:01:01.014Z,10.38
2022-11-25T20:03:30.598Z,12.43
2022-11-25T20:05:57.689Z,9.80
2022-11-25T20:08:26.817Z,11.57
2022-11-25T20:10:54.339Z,11.60
2022-11-25T20:13:23.419Z,14.18
2022-11-25T20:15:50.566Z,8.18
2022-11-25T20:18:20.391Z,6.80
2022-11-25T20:20:50.004Z,10.90
2022-11-25T20:23:32.864Z,8.88
2022-11-25T20:25:59.610Z,9.97
2022-11-25T20:28:30.126Z,10.52
2022-11-25T20:30:59.137Z,12.38
2022-11-25T20:33:27.053Z,7.18
2022-11-25T20:36:03.214Z,11.48
2022-11-25T20:38:32.438Z,12.95
2022-11-25T20:41:00.533Z,10.20
2022-11-25T20:43:30.786Z,18.95
2022-11-25T20:45:58.342Z,13.43
2022-11-25T20:48:25.627Z,17.77
2022-11-25T20:50:53.290Z,16.42
2022-11-25T20:53:22.441Z,14.85
2022-11-25T20:55:49.726Z,14.52
2022-11-25T20:58:21.495Z,17.85
2022-11-25T21:00:52.798Z,17.55
2022-11-25T21:03:22.615Z,15.00
2022-11-25T21:05:50.682Z,13.27
2022-11-25T21:08:23.999Z,12.52
2022-11-25T21:10:53.932Z,13.65
2022-11-25T21:13:29.277Z,12.30
2022-11-25T21:15:59.142Z,12.98
2022-11-25T21:18:25.679Z,13.48
2022-11-25T21:20:54.121Z,11.32
2022-11-25T21:23:27.614Z,13.70
2022-11-25T21:28:26.772Z,10.00
2022-11-25T21:30:53.532Z,10.85
2022-11-25T21:33:19.944Z,11.70
2022-11-25T21:35:50.435Z,9.10
2022-11-25T21:38:20.958Z,11.57
2022-11-25T21:40:52.357Z,14.00
2022-11-25T21:43:29.801Z,9.98
2022-11-25T21:46:01.549Z,12.82
2022-11-25T21:48:31.344Z,10.25
2022-11-25T21:50:58.941Z,14.32
2022-11-25T21:53:27.251Z,10.48
2022-11-25T21:55:54.202Z,10.80
2022-11-25T21:58:28.642Z,12.02
2022-11-25T22:00:58.326Z,11.82
2022-11-25T22:03:26.210Z,9.77
2022-11-25T22:05:52.782Z,11.52
2022-11-25T22:08:19.251Z,8.32
2022-11-25T22:10:48.918Z,12.30
2022-11-25T22:13:22.301Z,9.63
2022-11-25T22:18:28.153Z,12.63
2022-11-25T22:20:54.723Z,11.30
2022-11-25T22:23:22.024Z,10.18
2022-11-25T22:25:50.185Z,11.32
2022-11-25T22:28:19.976Z,12.25
2022-11-25T22:30:50.987Z,14.52
2022-11-25T22:33:18.207Z,18.55
2022-11-25T22:35:44.647Z,11.38
2022-11-25T22:38:16.402Z,12.55
2022-11-25T22:40:45.723Z,13.73
2022-11-25T22:43:17.163Z,9.55
2022-11-25T22:45:44.352Z,14.90
2022-11-25T22:48:15.803Z,12.75
2022-11-25T22:50:43.956Z,10.35
2022-11-25T22:53:14.733Z,10.73
2022-11-25T22:55:41.609Z,15.68
2022-11-25T22:58:08.353Z,10.43
2022-11-25T23:00:38.425Z,13.57
2022-11-25T23:03:19.105Z,11.98
2022-11-25T23:05:46.035Z,12.88
2022-11-25T23:08:18.803Z,16.85
2022-11-25T23:10:46.599Z,11.48
2022-11-25T23:13:14.636Z,20.80
2022-11-25T23:15:55.795Z,20.15
2022-11-25T23:18:39.028Z,18.38
2022-11-25T23:21:07.006Z,19.80
2022-11-25T23:23:33.406Z,15.50
2022-11-25T23:25:59.955Z,14.52
2022-11-25T23:28:26.663Z,24.85
2022-11-25T23:30:58.686Z,14.00
2022-11-25T23:33:37.828Z,13.82
2022-11-25T23:36:12.587Z,13.30
2022-11-25T23:38:43.606Z,23.15
2022-11-25T23:41:22.146Z,14.45
2022-11-25T23:43:49.445Z,14.15
2022-11-25T23:46:19.018Z,8.18
2022-11-25T23:48:52.685Z,10.90
2022-11-25T23:51:20.877Z,12.35
2022-11-25T23:53:47.345Z,11.20
2022-11-25T23:56:14.184Z,13.52
2022-11-25T23:58:40.645Z,11.15
